sensor_id;sensor_type;location;lat;lon;timestamp;P1;durP1;ratioP1;P2;durP2;ratioP2
24559;SDS011;12727;49.934;8.656;2023-08-06T00:00:15;4.53;;;3.35;;
24559;SDS011;12727;49.934;8.656;2023-08-06T00:02:41;8.25;;;3.97;;
24559;SDS011;12727;49.934;8.656;2023-08-06T00:05:06;5.97;;;3.75;;
24559;SDS011;12727;49.934;8.656;2023-08-06T00:07:32;5.65;;;3.78;;
24559;SDS011;12727;49.934;8.656;2023-08-06T00:09:58;7.93;;;4.10;;
24559;SDS011;12727;49.934;8.656;2023-08-06T00:12:23;5.35;;;4.32;;
24559;SDS011;12727;49.934;8.656;2023-08-06T00:14:52;5.35;;;3.80;;
24559;SDS011;12727;49.934;8.656;2023-08-06T00:17:18;5.75;;;4.40;;
24559;SDS011;12727;49.934;8.656;2023-08-06T00:19:44;8.25;;;4.30;;
24559;SDS011;12727;49.934;8.656;2023-08-06T00:22:10;4.32;;;3.90;;
24559;SDS011;12727;49.934;8.656;2023-08-06T00:24:36;5.30;;;4.32;;
24559;SDS011;12727;49.934;8.656;2023-08-06T00:27:01;6.38;;;3.80;;
24559;SDS011;12727;49.934;8.656;2023-08-06T00:29:27;4.75;;;3.50;;
24559;SDS011;12727;49.934;8.656;2023-08-06T00:31:53;6.28;;;3.60;;
24559;SDS011;12727;49.934;8.656;2023-08-06T00:34:19;4.40;;;3.20;;
24559;SDS011;12727;49.934;8.656;2023-08-06T00:36:44;6.20;;;3.17;;
24559;SDS011;12727;49.934;8.656;2023-08-06T00:39:10;5.65;;;3.60;;
24559;SDS011;12727;49.934;8.656;2023-08-06T00:41:36;6.32;;;3.35;;
24559;SDS011;12727;49.934;8.656;2023-08-06T00:44:01;5.13;;;3.47;;
24559;SDS011;12727;49.934;8.656;2023-08-06T00:46:27;4.35;;;3.70;;
24559;SDS011;12727;49.934;8.656;2023-08-06T00:48:53;8.75;;;3.50;;
24559;SDS011;12727;49.934;8.656;2023-08-06T00:51:20;5.40;;;3.40;;
24559;SDS011;12727;49.934;8.656;2023-08-06T00:53:46;4.28;;;3.25;;
24559;SDS011;12727;49.934;8.656;2023-08-06T00:56:12;3.50;;;2.92;;
24559;SDS011;12727;49.934;8.656;2023-08-06T00:58:39;5.57;;;3.10;;
24559;SDS011;12727;49.934;8.656;2023-08-06T01:01:05;6.22;;;3.25;;
24559;SDS011;12727;49.934;8.656;2023-08-06T01:03:30;6.63;;;3.78;;
24559;SDS011;12727;49.934;8.656;2023-08-06T01:05:56;8.75;;;3.65;;
24559;SDS011;12727;49.934;8.656;2023-08-06T01:08:30;4.22;;;3.45;;
24559;SDS011;12727;49.934;8.656;2023-08-06T01:11:05;5.40;;;3.35;;
24559;SDS011;12727;49.934;8.656;2023-08-06T01:13:46;7.82;;;3.60;;
24559;SDS011;12727;49.934;8.656;2023-08-06T01:16:15;5.40;;;3.30;;
24559;SDS011;12727;49.934;8.656;2023-08-06T01:18:42;4.50;;;3.08;;
24559;SDS011;12727;49.934;8.656;2023-08-06T01:21:11;5.57;;;3.03;;
24559;SDS011;12727;49.934;8.656;2023-08-06T01:23:40;5.07;;;3.17;;
24559;SDS011;12727;49.934;8.656;2023-08-06T01:26:11;5.60;;;3.40;;
24559;SDS011;12727;49.934;8.656;2023-08-06T01:31:30;5.30;;;2.97;;
24559;SDS011;12727;49.934;8.656;2023-08-06T01:33:57;5.57;;;2.72;;
24559;SDS011;12727;49.934;8.656;2023-08-06T01:36:25;6.30;;;3.17;;
24559;SDS011;12727;49.934;8.656;2023-08-06T01:38:52;4.35;;;3.08;;
24559;SDS011;12727;49.934;8.656;2023-08-06T01:41:21;8.05;;;3.47;;
24559;SDS011;12727;49.934;8.656;2023-08-06T01:43:46;4.75;;;3.30;;
24559;SDS011;12727;49.934;8.656;2023-08-06T01:46:12;5.93;;;3.47;;
24559;SDS011;12727;49.934;8.656;2023-08-06T01:48:37;5.22;;;3.20;;
24559;SDS011;12727;49.934;8.656;2023-08-06T01:51:06;4.57;;;3.13;;
24559;SDS011;12727;49.934;8.656;2023-08-06T01:53:32;5.13;;;3.15;;
24559;SDS011;12727;49.934;8.656;2023-08-06T01:55:58;6.72;;;3.22;;
24559;SDS011;12727;49.934;8.656;2023-08-06T01:58:24;5.03;;;3.30;;
24559;SDS011;12727;49.934;8.656;2023-08-06T02:00:50;4.90;;;2.92;;
24559;SDS011;12727;49.934;8.656;2023-08-06T02:03:15;5.68;;;2.97;;
24559;SDS011;12727;49.934;8.656;2023-08-06T02:05:42;3.50;;;2.92;;
24559;SDS011;12727;49.934;8.656;2023-08-06T02:08:08;5.60;;;2.90;;
24559;SDS011;12727;49.934;8.656;2023-08-06T02:10:33;6.22;;;3.00;;
24559;SDS011;12727;49.934;8.656;2023-08-06T02:12:59;5.28;;;3.00;;
24559;SDS011;12727;49.934;8.656;2023-08-06T02:15:25;4.13;;;2.40;;
24559;SDS011;12727;49.934;8.656;2023-08-06T02:17:50;3.60;;;2.38;;
24559;SDS011;12727;49.934;8.656;2023-08-06T02:20:16;6.18;;;2.28;;
24559;SDS011;12727;49.934;8.656;2023-08-06T02:22:42;5.53;;;2.70;;
24559;SDS011;12727;49.934;8.656;2023-08-06T02:25:07;3.63;;;2.40;;
24559;SDS011;12727;49.934;8.656;2023-08-06T02:27:33;3.90;;;2.25;;
24559;SDS011;12727;49.934;8.656;2023-08-06T02:29:58;4.72;;;2.33;;
24559;SDS011;12727;49.934;8.656;2023-08-06T02:32:24;5.55;;;2.20;;
24559;SDS011;12727;49.934;8.656;2023-08-06T02:34:49;5.35;;;2.45;;
24559;SDS011;12727;49.934;8.656;2023-08-06T02:37:15;8.27;;;2.55;;
24559;SDS011;12727;49.934;8.656;2023-08-06T02:39:40;6.75;;;2.33;;
24559;SDS011;12727;49.934;8.656;2023-08-06T02:42:06;5.13;;;2.42;;
24559;SDS011;12727;49.934;8.656;2023-08-06T02:44:32;6.60;;;2.80;;
24559;SDS011;12727;49.934;8.656;2023-08-06T02:46:59;6.88;;;2.42;;
24559;SDS011;12727;49.934;8.656;2023-08-06T02:49:24;8.35;;;2.42;;
24559;SDS011;12727;49.934;8.656;2023-08-06T02:51:50;4.60;;;2.50;;
24559;SDS011;12727;49.934;8.656;2023-08-06T02:54:16;6.65;;;2.50;;
24559;SDS011;12727;49.934;8.656;2023-08-06T02:56:43;7.07;;;2.40;;
24559;SDS011;12727;49.934;8.656;2023-08-06T02:59:10;6.03;;;2.60;;
24559;SDS011;12727;49.934;8.656;2023-08-06T03:01:35;6.20;;;2.58;;
24559;SDS011;12727;49.934;8.656;2023-08-06T03:04:01;6.65;;;2.67;;
24559;SDS011;12727;49.934;8.656;2023-08-06T03:06:27;7.35;;;3.08;;
24559;SDS011;12727;49.934;8.656;2023-08-06T03:08:53;6.03;;;2.72;;
24559;SDS011;12727;49.934;8.656;2023-08-06T03:11:18;7.95;;;2.60;;
24559;SDS011;12727;49.934;8.656;2023-08-06T03:13:44;7.97;;;2.80;;
24559;SDS011;12727;49.934;8.656;2023-08-06T03:16:09;4.18;;;2.10;;
24559;SDS011;12727;49.934;8.656;2023-08-06T03:18:35;4.72;;;1.80;;
24559;SDS011;12727;49.934;8.656;2023-08-06T03:21:00;4.88;;;2.28;;
24559;SDS011;12727;49.934;8.656;2023-08-06T03:23:26;6.32;;;1.73;;
24559;SDS011;12727;49.934;8.656;2023-08-06T03:25:52;2.20;;;1.63;;
24559;SDS011;12727;49.934;8.656;2023-08-06T03:28:17;3.10;;;1.80;;
24559;SDS011;12727;49.934;8.656;2023-08-06T03:30:43;3.83;;;1.65;;
24559;SDS011;12727;49.934;8.656;2023-08-06T03:33:08;2.90;;;1.65;;
24559;SDS011;12727;49.934;8.656;2023-08-06T03:35:34;4.03;;;2.00;;
24559;SDS011;12727;49.934;8.656;2023-08-06T03:37:59;3.30;;;2.10;;
24559;SDS011;12727;49.934;8.656;2023-08-06T03:40:25;5.35;;;2.05;;
24559;SDS011;12727;49.934;8.656;2023-08-06T03:42:50;4.03;;;2.10;;
24559;SDS011;12727;49.934;8.656;2023-08-06T03:45:16;4.35;;;1.98;;
24559;SDS011;12727;49.934;8.656;2023-08-06T03:47:42;4.38;;;2.30;;
24559;SDS011;12727;49.934;8.656;2023-08-06T03:50:07;5.15;;;2.30;;
24559;SDS011;12727;49.934;8.656;2023-08-06T03:52:33;3.45;;;2.20;;
24559;SDS011;12727;49.934;8.656;2023-08-06T03:54:59;5.85;;;2.20;;
24559;SDS011;12727;49.934;8.656;2023-08-06T03:57:24;4.72;;;2.17;;
24559;SDS011;12727;49.934;8.656;2023-08-06T03:59:50;4.85;;;2.40;;
24559;SDS011;12727;49.934;8.656;2023-08-06T04:02:15;4.47;;;2.13;;
24559;SDS011;12727;49.934;8.656;2023-08-06T04:04:41;4.60;;;2.08;;
24559;SDS011;12727;49.934;8.656;2023-08-06T04:07:07;2.92;;;1.95;;
24559;SDS011;12727;49.934;8.656;2023-08-06T04:09:32;4.13;;;1.90;;
24559;SDS011;12727;49.934;8.656;2023-08-06T04:11:58;4.10;;;2.10;;
24559;SDS011;12727;49.934;8.656;2023-08-06T04:14:28;4.50;;;2.20;;
24559;SDS011;12727;49.934;8.656;2023-08-06T04:16:53;4.97;;;2.25;;
24559;SDS011;12727;49.934;8.656;2023-08-06T04:19:19;4.78;;;2.10;;
24559;SDS011;12727;49.934;8.656;2023-08-06T04:21:44;4.88;;;2.63;;
24559;SDS011;12727;49.934;8.656;2023-08-06T04:24:10;3.95;;;2.65;;
24559;SDS011;12727;49.934;8.656;2023-08-06T04:26:36;4.80;;;3.15;;
24559;SDS011;12727;49.934;8.656;2023-08-06T04:29:01;8.00;;;2.90;;
24559;SDS011;12727;49.934;8.656;2023-08-06T04:31:28;5.88;;;3.10;;
24559;SDS011;12727;49.934;8.656;2023-08-06T04:33:54;4.47;;;3.15;;
24559;SDS011;12727;49.934;8.656;2023-08-06T04:36:19;6.32;;;3.35;;
24559;SDS011;12727;49.934;8.656;2023-08-06T04:38:45;5.15;;;3.30;;
24559;SDS011;12727;49.934;8.656;2023-08-06T04:41:12;4.20;;;2.85;;
24559;SDS011;12727;49.934;8.656;2023-08-06T04:43:38;6.53;;;3.28;;
24559;SDS011;12727;49.934;8.656;2023-08-06T04:46:03;5.57;;;3.35;;
24559;SDS011;12727;49.934;8.656;2023-08-06T04:48:30;8.68;;;4.00;;
24559;SDS011;12727;49.934;8.656;2023-08-06T04:50:55;8.32;;;3.70;;
24559;SDS011;12727;49.934;8.656;2023-08-06T04:53:21;9.55;;;4.10;;
24559;SDS011;12727;49.934;8.656;2023-08-06T04:55:47;7.22;;;3.88;;
24559;SDS011;12727;49.934;8.656;2023-08-06T04:58:12;6.07;;;3.90;;
24559;SDS011;12727;49.934;8.656;2023-08-06T05:00:38;5.88;;;3.88;;
24559;SDS011;12727;49.934;8.656;2023-08-06T05:03:05;6.40;;;4.38;;
24559;SDS011;12727;49.934;8.656;2023-08-06T05:05:31;8.50;;;3.75;;
24559;SDS011;12727;49.934;8.656;2023-08-06T05:07:56;5.28;;;4.03;;
24559;SDS011;12727;49.934;8.656;2023-08-06T05:10:25;6.30;;;3.70;;
24559;SDS011;12727;49.934;8.656;2023-08-06T05:12:51;7.10;;;3.90;;
24559;SDS011;12727;49.934;8.656;2023-08-06T05:15:18;6.13;;;3.55;;
24559;SDS011;12727;49.934;8.656;2023-08-06T05:17:44;8.10;;;3.75;;
24559;SDS011;12727;49.934;8.656;2023-08-06T05:20:10;4.95;;;3.33;;
24559;SDS011;12727;49.934;8.656;2023-08-06T05:22:36;4.57;;;3.20;;
24559;SDS011;12727;49.934;8.656;2023-08-06T05:25:01;6.47;;;3.15;;
24559;SDS011;12727;49.934;8.656;2023-08-06T05:27:27;6.18;;;2.70;;
24559;SDS011;12727;49.934;8.656;2023-08-06T05:29:54;4.30;;;2.80;;
24559;SDS011;12727;49.934;8.656;2023-08-06T05:32:21;6.80;;;2.55;;
24559;SDS011;12727;49.934;8.656;2023-08-06T05:34:47;6.95;;;2.83;;
24559;SDS011;12727;49.934;8.656;2023-08-06T05:37:12;7.47;;;2.05;;
24559;SDS011;12727;49.934;8.656;2023-08-06T05:39:38;3.38;;;1.80;;
24559;SDS011;12727;49.934;8.656;2023-08-06T05:42:04;5.75;;;1.80;;
24559;SDS011;12727;49.934;8.656;2023-08-06T05:44:30;2.75;;;1.30;;
24559;SDS011;12727;49.934;8.656;2023-08-06T05:46:55;4.82;;;1.48;;
24559;SDS011;12727;49.934;8.656;2023-08-06T05:49:21;5.07;;;1.63;;
24559;SDS011;12727;49.934;8.656;2023-08-06T05:51:46;3.33;;;1.80;;
24559;SDS011;12727;49.934;8.656;2023-08-06T05:54:13;4.93;;;1.90;;
24559;SDS011;12727;49.934;8.656;2023-08-06T05:56:38;3.55;;;1.60;;
24559;SDS011;12727;49.934;8.656;2023-08-06T05:59:04;2.85;;;1.80;;
24559;SDS011;12727;49.934;8.656;2023-08-06T06:01:29;4.97;;;1.90;;
24559;SDS011;12727;49.934;8.656;2023-08-06T06:03:55;4.68;;;2.00;;
24559;SDS011;12727;49.934;8.656;2023-08-06T06:06:20;3.78;;;2.22;;
24559;SDS011;12727;49.934;8.656;2023-08-06T06:08:46;4.22;;;2.25;;
24559;SDS011;12727;49.934;8.656;2023-08-06T06:11:12;3.25;;;1.85;;
24559;SDS011;12727;49.934;8.656;2023-08-06T06:13:37;4.78;;;2.55;;
24559;SDS011;12727;49.934;8.656;2023-08-06T06:16:03;3.67;;;2.20;;
24559;SDS011;12727;49.934;8.656;2023-08-06T06:18:30;5.22;;;2.30;;
24559;SDS011;12727;49.934;8.656;2023-08-06T06:20:55;4.53;;;2.20;;
24559;SDS011;12727;49.934;8.656;2023-08-06T06:23:21;3.25;;;2.10;;
24559;SDS011;12727;49.934;8.656;2023-08-06T06:25:47;5.50;;;2.30;;
24559;SDS011;12727;49.934;8.656;2023-08-06T06:28:14;4.78;;;2.00;;
24559;SDS011;12727;49.934;8.656;2023-08-06T06:30:41;4.97;;;1.98;;
24559;SDS011;12727;49.934;8.656;2023-08-06T06:33:07;5.90;;;2.17;;
24559;SDS011;12727;49.934;8.656;2023-08-06T06:35:33;5.32;;;2.33;;
24559;SDS011;12727;49.934;8.656;2023-08-06T06:37:58;3.08;;;2.10;;
24559;SDS011;12727;49.934;8.656;2023-08-06T06:40:25;2.92;;;1.60;;
24559;SDS011;12727;49.934;8.656;2023-08-06T06:42:50;4.00;;;2.28;;
24559;SDS011;12727;49.934;8.656;2023-08-06T06:45:16;2.97;;;1.70;;
24559;SDS011;12727;49.934;8.656;2023-08-06T06:47:41;3.95;;;1.50;;
24559;SDS011;12727;49.934;8.656;2023-08-06T06:50:07;5.18;;;1.75;;
24559;SDS011;12727;49.934;8.656;2023-08-06T06:52:33;3.72;;;1.40;;
24559;SDS011;12727;49.934;8.656;2023-08-06T06:54:58;3.78;;;1.60;;
24559;SDS011;12727;49.934;8.656;2023-08-06T06:57:24;3.10;;;1.80;;
24559;SDS011;12727;49.934;8.656;2023-08-06T06:59:49;2.75;;;1.38;;
24559;SDS011;12727;49.934;8.656;2023-08-06T07:02:15;5.03;;;1.70;;
24559;SDS011;12727;49.934;8.656;2023-08-06T07:04:41;3.47;;;1.30;;
24559;SDS011;12727;49.934;8.656;2023-08-06T07:07:06;2.30;;;1.20;;
24559;SDS011;12727;49.934;8.656;2023-08-06T07:09:32;3.88;;;1.77;;
24559;SDS011;12727;49.934;8.656;2023-08-06T07:11:57;4.18;;;1.65;;
24559;SDS011;12727;49.934;8.656;2023-08-06T07:14:25;4.78;;;1.48;;
24559;SDS011;12727;49.934;8.656;2023-08-06T07:16:50;1.83;;;1.30;;
24559;SDS011;12727;49.934;8.656;2023-08-06T07:19:16;4.45;;;2.10;;
24559;SDS011;12727;49.934;8.656;2023-08-06T07:21:42;2.90;;;1.30;;
24559;SDS011;12727;49.934;8.656;2023-08-06T07:24:07;2.95;;;1.50;;
24559;SDS011;12727;49.934;8.656;2023-08-06T07:26:33;2.92;;;1.80;;
24559;SDS011;12727;49.934;8.656;2023-08-06T07:28:58;4.05;;;1.67;;
24559;SDS011;12727;49.934;8.656;2023-08-06T07:31:24;6.75;;;1.70;;
24559;SDS011;12727;49.934;8.656;2023-08-06T07:33:50;2.80;;;1.48;;
24559;SDS011;12727;49.934;8.656;2023-08-06T07:36:16;3.65;;;1.65;;
24559;SDS011;12727;49.934;8.656;2023-08-06T07:38:41;7.68;;;2.10;;
24559;SDS011;12727;49.934;8.656;2023-08-06T07:41:08;3.20;;;1.55;;
24559;SDS011;12727;49.934;8.656;2023-08-06T07:43:33;4.25;;;1.85;;
24559;SDS011;12727;49.934;8.656;2023-08-06T07:46:01;2.67;;;1.42;;
24559;SDS011;12727;49.934;8.656;2023-08-06T07:48:27;3.05;;;1.38;;
24559;SDS011;12727;49.934;8.656;2023-08-06T07:50:53;3.55;;;1.45;;
24559;SDS011;12727;49.934;8.656;2023-08-06T07:53:22;5.30;;;1.77;;
24559;SDS011;12727;49.934;8.656;2023-08-06T07:55:52;4.82;;;1.77;;
24559;SDS011;12727;49.934;8.656;2023-08-06T07:58:19;5.32;;;1.77;;
24559;SDS011;12727;49.934;8.656;2023-08-06T08:00:48;5.78;;;1.80;;
24559;SDS011;12727;49.934;8.656;2023-08-06T08:03:16;4.05;;;1.67;;
24559;SDS011;12727;49.934;8.656;2023-08-06T08:05:42;2.17;;;1.33;;
24559;SDS011;12727;49.934;8.656;2023-08-06T08:08:08;3.05;;;2.03;;
24559;SDS011;12727;49.934;8.656;2023-08-06T08:10:34;2.47;;;1.80;;
24559;SDS011;12727;49.934;8.656;2023-08-06T08:13:01;1.98;;;1.60;;
24559;SDS011;12727;49.934;8.656;2023-08-06T08:15:28;2.38;;;1.30;;
24559;SDS011;12727;49.934;8.656;2023-08-06T08:17:54;4.45;;;1.80;;
24559;SDS011;12727;49.934;8.656;2023-08-06T08:20:20;6.68;;;1.60;;
24559;SDS011;12727;49.934;8.656;2023-08-06T08:22:46;2.63;;;1.38;;
24559;SDS011;12727;49.934;8.656;2023-08-06T08:25:11;3.65;;;1.50;;
24559;SDS011;12727;49.934;8.656;2023-08-06T08:27:37;4.95;;;1.65;;
24559;SDS011;12727;49.934;8.656;2023-08-06T08:30:03;1.70;;;1.00;;
24559;SDS011;12727;49.934;8.656;2023-08-06T08:32:29;3.63;;;1.40;;
24559;SDS011;12727;49.934;8.656;2023-08-06T08:34:55;3.65;;;1.08;;
24559;SDS011;12727;49.934;8.656;2023-08-06T08:37:21;3.08;;;1.13;;
24559;SDS011;12727;49.934;8.656;2023-08-06T08:39:46;4.13;;;0.95;;
24559;SDS011;12727;49.934;8.656;2023-08-06T08:42:12;1.35;;;0.55;;
24559;SDS011;12727;49.934;8.656;2023-08-06T08:44:38;4.43;;;0.65;;
24559;SDS011;12727;49.934;8.656;2023-08-06T08:47:09;1.83;;;0.40;;
24559;SDS011;12727;49.934;8.656;2023-08-06T08:49:36;1.42;;;0.60;;
24559;SDS011;12727;49.934;8.656;2023-08-06T08:52:03;2.88;;;0.57;;
24559;SDS011;12727;49.934;8.656;2023-08-06T08:54:33;1.08;;;0.30;;
24559;SDS011;12727;49.934;8.656;2023-08-06T08:56:59;1.13;;;0.50;;
24559;SDS011;12727;49.934;8.656;2023-08-06T08:59:25;0.65;;;0.30;;
24559;SDS011;12727;49.934;8.656;2023-08-06T09:01:52;0.70;;;0.30;;
24559;SDS011;12727;49.934;8.656;2023-08-06T09:04:19;2.67;;;0.30;;
24559;SDS011;12727;49.934;8.656;2023-08-06T09:06:47;1.83;;;0.50;;
24559;SDS011;12727;49.934;8.656;2023-08-06T09:09:37;1.50;;;0.40;;
24559;SDS011;12727;49.934;8.656;2023-08-06T09:12:12;1.13;;;0.50;;
24559;SDS011;12727;49.934;8.656;2023-08-06T09:14:39;0.88;;;0.40;;
24559;SDS011;12727;49.934;8.656;2023-08-06T09:17:05;0.82;;;0.30;;
24559;SDS011;12727;49.934;8.656;2023-08-06T09:19:36;1.50;;;0.40;;
24559;SDS011;12727;49.934;8.656;2023-08-06T09:22:02;1.63;;;0.20;;
24559;SDS011;12727;49.934;8.656;2023-08-06T09:24:28;1.35;;;0.20;;
24559;SDS011;12727;49.934;8.656;2023-08-06T09:26:54;0.75;;;0.20;;
24559;SDS011;12727;49.934;8.656;2023-08-06T09:29:20;0.57;;;0.20;;
24559;SDS011;12727;49.934;8.656;2023-08-06T09:34:12;1.10;;;0.40;;
24559;SDS011;12727;49.934;8.656;2023-08-06T09:36:46;0.52;;;0.20;;
24559;SDS011;12727;49.934;8.656;2023-08-06T09:39:16;0.20;;;0.20;;
24559;SDS011;12727;49.934;8.656;2023-08-06T09:41:43;0.45;;;0.20;;
24559;SDS011;12727;49.934;8.656;2023-08-06T09:44:17;0.47;;;0.28;;
24559;SDS011;12727;49.934;8.656;2023-08-06T09:49:13;4.90;;;0.60;;
24559;SDS011;12727;49.934;8.656;2023-08-06T09:51:38;0.80;;;0.40;;
24559;SDS011;12727;49.934;8.656;2023-08-06T09:54:05;0.90;;;0.40;;
24559;SDS011;12727;49.934;8.656;2023-08-06T09:56:33;0.73;;;0.30;;
24559;SDS011;12727;49.934;8.656;2023-08-06T09:59:03;1.35;;;0.40;;
24559;SDS011;12727;49.934;8.656;2023-08-06T10:01:32;2.85;;;0.40;;
24559;SDS011;12727;49.934;8.656;2023-08-06T10:03:59;1.50;;;0.30;;
24559;SDS011;12727;49.934;8.656;2023-08-06T10:06:26;1.15;;;0.52;;
24559;SDS011;12727;49.934;8.656;2023-08-06T10:08:53;0.73;;;0.40;;
24559;SDS011;12727;49.934;8.656;2023-08-06T10:11:18;1.13;;;0.30;;
24559;SDS011;12727;49.934;8.656;2023-08-06T10:13:48;0.80;;;0.30;;
24559;SDS011;12727;49.934;8.656;2023-08-06T10:16:16;1.95;;;0.40;;
24559;SDS011;12727;49.934;8.656;2023-08-06T10:18:43;0.77;;;0.38;;
24559;SDS011;12727;49.934;8.656;2023-08-06T10:21:09;2.88;;;0.35;;
24559;SDS011;12727;49.934;8.656;2023-08-06T10:23:35;0.63;;;0.30;;
24559;SDS011;12727;49.934;8.656;2023-08-06T10:26:03;0.98;;;0.47;;
24559;SDS011;12727;49.934;8.656;2023-08-06T10:28:43;1.50;;;0.40;;
24559;SDS011;12727;49.934;8.656;2023-08-06T10:31:18;1.20;;;0.50;;
24559;SDS011;12727;49.934;8.656;2023-08-06T10:33:59;1.23;;;0.80;;
24559;SDS011;12727;49.934;8.656;2023-08-06T10:36:24;1.52;;;0.50;;
24559;SDS011;12727;49.934;8.656;2023-08-06T10:41:32;0.55;;;0.20;;
24559;SDS011;12727;49.934;8.656;2023-08-06T10:44:08;0.77;;;0.30;;
24559;SDS011;12727;49.934;8.656;2023-08-06T10:46:43;0.80;;;0.20;;
24559;SDS011;12727;49.934;8.656;2023-08-06T10:49:53;0.57;;;0.20;;
24559;SDS011;12727;49.934;8.656;2023-08-06T10:55:13;0.52;;;0.20;;
24559;SDS011;12727;49.934;8.656;2023-08-06T10:57:46;0.17;;;0.17;;
24559;SDS011;12727;49.934;8.656;2023-08-06T11:00:12;0.47;;;0.20;;
24559;SDS011;12727;49.934;8.656;2023-08-06T11:02:39;0.65;;;0.20;;
24559;SDS011;12727;49.934;8.656;2023-08-06T11:05:07;2.17;;;0.20;;
24559;SDS011;12727;49.934;8.656;2023-08-06T11:07:37;0.17;;;0.08;;
24559;SDS011;12727;49.934;8.656;2023-08-06T11:10:07;0.57;;;0.15;;
24559;SDS011;12727;49.934;8.656;2023-08-06T11:12:39;0.10;;;0.10;;
24559;SDS011;12727;49.934;8.656;2023-08-06T11:15:05;0.10;;;0.00;;
24559;SDS011;12727;49.934;8.656;2023-08-06T11:17:34;0.65;;;0.10;;
24559;SDS011;12727;49.934;8.656;2023-08-06T11:20:04;0.00;;;0.00;;
24559;SDS011;12727;49.934;8.656;2023-08-06T11:22:39;0.10;;;0.10;;
24559;SDS011;12727;49.934;8.656;2023-08-06T11:25:12;2.38;;;0.30;;
24559;SDS011;12727;49.934;8.656;2023-08-06T11:27:38;0.15;;;0.00;;
24559;SDS011;12727;49.934;8.656;2023-08-06T11:30:04;0.00;;;0.00;;
24559;SDS011;12727;49.934;8.656;2023-08-06T11:32:30;0.17;;;0.00;;
24559;SDS011;12727;49.934;8.656;2023-08-06T11:34:56;1.77;;;0.05;;
24559;SDS011;12727;49.934;8.656;2023-08-06T11:37:24;0.17;;;0.00;;
24559;SDS011;12727;49.934;8.656;2023-08-06T11:39:50;0.00;;;0.00;;
24559;SDS011;12727;49.934;8.656;2023-08-06T11:42:16;0.13;;;0.00;;
24559;SDS011;12727;49.934;8.656;2023-08-06T11:44:42;0.00;;;0.00;;
24559;SDS011;12727;49.934;8.656;2023-08-06T11:47:14;8.15;;;0.20;;
24559;SDS011;12727;49.934;8.656;2023-08-06T11:52:14;0.00;;;0.00;;
24559;SDS011;12727;49.934;8.656;2023-08-06T11:54:48;0.20;;;0.00;;
24559;SDS011;12727;49.934;8.656;2023-08-06T11:57:31;0.30;;;0.10;;
24559;SDS011;12727;49.934;8.656;2023-08-06T12:00:09;0.00;;;0.00;;
24559;SDS011;12727;49.934;8.656;2023-08-06T12:02:36;0.95;;;0.10;;
24559;SDS011;12727;49.934;8.656;2023-08-06T12:05:14;1.00;;;0.20;;
24559;SDS011;12727;49.934;8.656;2023-08-06T12:07:41;0.17;;;0.10;;
24559;SDS011;12727;49.934;8.656;2023-08-06T12:10:07;0.15;;;0.08;;
24559;SDS011;12727;49.934;8.656;2023-08-06T12:12:33;1.15;;;0.10;;
24559;SDS011;12727;49.934;8.656;2023-08-06T12:14:59;0.90;;;0.10;;
24559;SDS011;12727;49.934;8.656;2023-08-06T12:17:25;0.77;;;0.15;;
24559;SDS011;12727;49.934;8.656;2023-08-06T12:19:51;1.60;;;0.20;;
24559;SDS011;12727;49.934;8.656;2023-08-06T12:22:17;0.63;;;0.20;;
24559;SDS011;12727;49.934;8.656;2023-08-06T12:24:43;0.20;;;0.15;;
24559;SDS011;12727;49.934;8.656;2023-08-06T12:27:10;0.30;;;0.20;;
24559;SDS011;12727;49.934;8.656;2023-08-06T12:29:37;0.10;;;0.00;;
24559;SDS011;12727;49.934;8.656;2023-08-06T12:32:06;1.13;;;0.30;;
24559;SDS011;12727;49.934;8.656;2023-08-06T12:34:32;0.57;;;0.30;;
24559;SDS011;12727;49.934;8.656;2023-08-06T12:36:57;0.40;;;0.20;;
24559;SDS011;12727;49.934;8.656;2023-08-06T12:39:23;0.70;;;0.25;;
24559;SDS011;12727;49.934;8.656;2023-08-06T12:41:49;0.90;;;0.20;;
24559;SDS011;12727;49.934;8.656;2023-08-06T12:44:15;0.80;;;0.25;;
24559;SDS011;12727;49.934;8.656;2023-08-06T12:46:40;3.58;;;0.40;;
24559;SDS011;12727;49.934;8.656;2023-08-06T12:49:06;0.93;;;0.30;;
24559;SDS011;12727;49.934;8.656;2023-08-06T12:51:31;0.50;;;0.30;;
24559;SDS011;12727;49.934;8.656;2023-08-06T12:53:58;0.70;;;0.40;;
24559;SDS011;12727;49.934;8.656;2023-08-06T12:56:24;1.73;;;0.30;;
24559;SDS011;12727;49.934;8.656;2023-08-06T12:58:50;1.00;;;0.22;;
24559;SDS011;12727;49.934;8.656;2023-08-06T13:01:15;0.15;;;0.15;;
24559;SDS011;12727;49.934;8.656;2023-08-06T13:03:41;1.25;;;0.20;;
24559;SDS011;12727;49.934;8.656;2023-08-06T13:06:06;0.63;;;0.25;;
24559;SDS011;12727;49.934;8.656;2023-08-06T13:08:34;0.40;;;0.30;;
24559;SDS011;12727;49.934;8.656;2023-08-06T13:11:00;0.50;;;0.20;;
24559;SDS011;12727;49.934;8.656;2023-08-06T13:13:25;0.70;;;0.30;;
24559;SDS011;12727;49.934;8.656;2023-08-06T13:15:52;0.93;;;0.30;;
24559;SDS011;12727;49.934;8.656;2023-08-06T13:18:17;3.15;;;0.52;;
24559;SDS011;12727;49.934;8.656;2023-08-06T13:20:43;1.73;;;0.82;;
24559;SDS011;12727;49.934;8.656;2023-08-06T13:23:09;0.43;;;0.22;;
24559;SDS011;12727;49.934;8.656;2023-08-06T13:25:34;0.88;;;0.47;;
24559;SDS011;12727;49.934;8.656;2023-08-06T13:28:05;1.30;;;0.30;;
24559;SDS011;12727;49.934;8.656;2023-08-06T13:30:30;0.73;;;0.50;;
24559;SDS011;12727;49.934;8.656;2023-08-06T13:32:56;2.58;;;0.52;;
24559;SDS011;12727;49.934;8.656;2023-08-06T13:35:22;2.13;;;0.80;;
24559;SDS011;12727;49.934;8.656;2023-08-06T13:37:48;0.50;;;0.40;;
24559;SDS011;12727;49.934;8.656;2023-08-06T13:40:14;0.52;;;0.30;;
24559;SDS011;12727;49.934;8.656;2023-08-06T13:42:40;1.55;;;0.40;;
24559;SDS011;12727;49.934;8.656;2023-08-06T13:45:06;1.20;;;0.43;;
24559;SDS011;12727;49.934;8.656;2023-08-06T13:47:32;1.42;;;0.50;;
24559;SDS011;12727;49.934;8.656;2023-08-06T13:49:57;2.10;;;0.40;;
24559;SDS011;12727;49.934;8.656;2023-08-06T13:52:24;1.42;;;0.63;;
24559;SDS011;12727;49.934;8.656;2023-08-06T13:54:51;1.83;;;0.50;;
24559;SDS011;12727;49.934;8.656;2023-08-06T13:57:17;1.20;;;0.52;;
24559;SDS011;12727;49.934;8.656;2023-08-06T13:59:42;1.48;;;0.50;;
24559;SDS011;12727;49.934;8.656;2023-08-06T14:02:08;1.33;;;0.50;;
24559;SDS011;12727;49.934;8.656;2023-08-06T14:04:34;3.83;;;0.60;;
24559;SDS011;12727;49.934;8.656;2023-08-06T14:07:00;3.13;;;0.50;;
24559;SDS011;12727;49.934;8.656;2023-08-06T14:09:26;2.97;;;0.43;;
24559;SDS011;12727;49.934;8.656;2023-08-06T14:11:51;4.95;;;0.60;;
24559;SDS011;12727;49.934;8.656;2023-08-06T14:14:17;1.52;;;0.20;;
24559;SDS011;12727;49.934;8.656;2023-08-06T14:16:42;0.85;;;0.20;;
24559;SDS011;12727;49.934;8.656;2023-08-06T14:19:08;1.50;;;0.40;;
24559;SDS011;12727;49.934;8.656;2023-08-06T14:21:33;1.58;;;0.40;;
24559;SDS011;12727;49.934;8.656;2023-08-06T14:23:59;1.60;;;0.30;;
24559;SDS011;12727;49.934;8.656;2023-08-06T14:26:24;1.27;;;0.30;;
24559;SDS011;12727;49.934;8.656;2023-08-06T14:28:50;0.60;;;0.30;;
24559;SDS011;12727;49.934;8.656;2023-08-06T14:31:19;1.08;;;0.38;;
24559;SDS011;12727;49.934;8.656;2023-08-06T14:33:45;0.60;;;0.20;;
24559;SDS011;12727;49.934;8.656;2023-08-06T14:36:11;0.55;;;0.20;;
24559;SDS011;12727;49.934;8.656;2023-08-06T14:38:36;1.55;;;0.20;;
24559;SDS011;12727;49.934;8.656;2023-08-06T14:41:02;1.77;;;0.20;;
24559;SDS011;12727;49.934;8.656;2023-08-06T14:43:28;0.43;;;0.20;;
24559;SDS011;12727;49.934;8.656;2023-08-06T14:45:53;0.85;;;0.30;;
24559;SDS011;12727;49.934;8.656;2023-08-06T14:48:19;0.80;;;0.20;;
24559;SDS011;12727;49.934;8.656;2023-08-06T14:50:45;1.92;;;0.32;;
24559;SDS011;12727;49.934;8.656;2023-08-06T14:53:10;1.02;;;0.20;;
24559;SDS011;12727;49.934;8.656;2023-08-06T14:55:36;0.63;;;0.20;;
24559;SDS011;12727;49.934;8.656;2023-08-06T14:58:02;0.30;;;0.10;;
24559;SDS011;12727;49.934;8.656;2023-08-06T15:00:28;1.23;;;0.20;;